Weather at Tomtor Airport

Public forecast

Using degrees Celsius for public forecast. Weather courtesy of forecast.io.

Closest aviation weather report (METAR) to Tomtor Airport

Closest report is Yakutsk Airport, 375.1 nm (694.7 km) W. Retrieved 2021/06/19 21:30 UTC (21 minutes ago):

UEEE 192130Z 36001MPS CAVOK 20/08 Q1007 R23L/09//70 NOSIG RMK QFE747

Closest aviation forecast (TAF) to Tomtor Airport

Forecast is more than 12 hours old.

Closest forecast is Seymchan Airport, 251.9 nm (466.6 km) E. Retrieved 2013/05/23 03:00 UTC (8 years ago):

TAF UHMS 230132Z 2303/2309 VRB02MPS 9999 NSC TEMPO 2303/2309 16005MPS